»·PEaware :: DCM205 KBUR-KSAN

DCM205 :: KBUR-KSAN

FLIGHT INFORMATION

Flight Status: Arrived
Operator:
DotCom
More flights by this operator :: More flights under this callsign
Pilot: Chris S. (2433)
Aircraft: BOEING 737-700
(B737)
More flights by this aircraft type
Origin: KBUR Bob Hope-Burbank
United States
Destination: KSAN San Diego Intl-Lindbergh
United States
More flights between these airports :: More routes between these airports
Route: +VNY3 TWINE V518 KIMMO V459 SLI SLI171 LAX118 CARDI MZB320 MZB
File this flight plan on PilotEdge
Remarks: BURP30B TEC ROUTE
Altitude:
(Current/Filed)
11,000ft
Speed:
(Current/Filed)
450kts
Departed: 24-Jun-20 02:49 PM
Arrived: 24-Jun-20 03:22 PM
Distance/Time
Traveled:
105nm/0:32
Distance/Time
To Go:
Arrived

Flight Plot

Page will automatically refresh every two minutes.

Flight plan parsing failed; only flown route is shown


Map Options




Map Legend


Flown Route
Filed Route
Departure Airport
Arrival Airport
Navaid (VOR, NDB)
Fix

Horizontal Profiles

Position Reports

Time Latitude Longitude Heading Altitude Ground
Speed
24-Jun-20 14:19 34.196194 -118.360852 180 734ft 0kts
24-Jun-20 14:20 34.196194 -118.360852 180 734ft 0kts
24-Jun-20 14:21 34.196194 -118.360852 180 734ft 0kts
24-Jun-20 14:22 34.196194 -118.360852 180 734ft 0kts
24-Jun-20 14:23 34.196194 -118.360852 180 734ft 0kts
24-Jun-20 14:24 34.196194 -118.360852 180 734ft 0kts
24-Jun-20 14:25 34.196194 -118.360852 180 734ft 0kts
24-Jun-20 14:26 34.196194 -118.360852 180 734ft 0kts
24-Jun-20 14:27 34.196194 -118.360852 180 734ft 0kts
24-Jun-20 14:28 34.196194 -118.360852 180 734ft 0kts
24-Jun-20 14:29 34.196194 -118.360852 180 734ft 0kts
24-Jun-20 14:30 34.196194 -118.360852 180 734ft 0kts
24-Jun-20 14:31 34.196194 -118.360852 180 734ft 0kts
24-Jun-20 14:32 34.196194 -118.360852 180 734ft 0kts
24-Jun-20 14:33 34.196194 -118.360852 180 734ft 0kts
24-Jun-20 14:34 34.196194 -118.360852 180 734ft 0kts
24-Jun-20 14:35 34.196194 -118.360852 180 734ft 0kts
24-Jun-20 14:36 34.196194 -118.360852 180 734ft 0kts
24-Jun-20 14:37 34.196194 -118.360852 180 734ft 0kts
24-Jun-20 14:38 34.196194 -118.360852 180 734ft 0kts
24-Jun-20 14:40 34.196666 -118.360860 161 734ft 2kts
24-Jun-20 14:41 34.196854 -118.361121 99 734ft 0kts
24-Jun-20 14:42 34.196826 -118.360187 90 734ft 12kts
24-Jun-20 14:43 34.197401 -118.358022 3 734ft 8kts
24-Jun-20 14:44 34.200203 -118.358263 347 734ft 11kts
24-Jun-20 14:45 34.203927 -118.359298 345 734ft 14kts
24-Jun-20 14:46 34.207521 -118.360302 346 734ft 12kts
24-Jun-20 14:47 34.210904 -118.361193 343 734ft 12kts
24-Jun-20 14:48 34.211969 -118.360488 126 734ft 7kts
24-Jun-20 14:49 34.200530 -118.357155 165 734ft 159kts
24-Jun-20 14:50 34.150534 -118.355184 219 3278ft 201kts
24-Jun-20 14:51 34.167837 -118.413319 339 4658ft 240kts
24-Jun-20 14:52 34.236257 -118.421550 13 6626ft 266kts
24-Jun-20 14:53 34.264055 -118.344833 113 8604ft 293kts
24-Jun-20 14:54 34.199349 -118.290784 155 10325ft 304kts
24-Jun-20 14:55 34.121432 -118.250311 153 11002ft 353kts
24-Jun-20 14:55 34.039260 -118.202020 154 10999ft 421kts
24-Jun-20 14:57 33.915087 -118.130444 154 10996ft 427kts
24-Jun-20 14:58 33.809273 -118.069931 157 10994ft 427kts
24-Jun-20 14:58 33.711689 -118.062456 186 11009ft 425kts
24-Jun-20 15:00 33.586964 -118.019705 125 11015ft 427kts
24-Jun-20 15:00 33.542235 -117.914941 114 11010ft 408kts
24-Jun-20 15:01 33.494381 -117.805247 131 11002ft 339kts
24-Jun-20 15:02 33.430032 -117.734612 137 11008ft 297kts
24-Jun-20 15:03 33.367737 -117.667911 137 11007ft 301kts
24-Jun-20 15:04 33.305406 -117.601220 137 11013ft 300kts
24-Jun-20 15:05 33.242866 -117.534739 138 11015ft 301kts
24-Jun-20 15:06 33.180305 -117.468343 138 11022ft 300kts
24-Jun-20 15:07 33.114956 -117.401624 139 11025ft 316kts
24-Jun-20 15:08 33.049547 -117.335787 139 10522ft 313kts
24-Jun-20 15:09 32.986392 -117.271974 139 9799ft 277kts
24-Jun-20 15:10 32.930688 -117.216081 138 8643ft 254kts
24-Jun-20 15:11 32.877107 -117.162495 138 7502ft 247kts
24-Jun-20 15:12 32.824661 -117.110115 138 6419ft 242kts
24-Jun-20 15:13 32.777396 -117.053803 115 6007ft 244kts
24-Jun-20 15:14 32.757592 -116.983026 112 5259ft 201kts
24-Jun-20 15:15 32.716338 -116.953114 184 4274ft 185kts
24-Jun-20 15:16 32.687982 -116.997219 266 3550ft 184kts
24-Jun-20 15:17 32.700928 -117.054818 283 2577ft 177kts
24-Jun-20 15:18 32.713761 -117.107842 283 1524ft 153kts
24-Jun-20 15:19 32.725236 -117.155361 282 620ft 148kts
24-Jun-20 15:20 32.735242 -117.196688 284 28ft 54kts
24-Jun-20 15:21 32.735733 -117.202157 195 28ft 8kts
24-Jun-20 15:22 32.733233 -117.202633 159 28ft 1kts
24-Jun-20 15:23 32.732349 -117.202245 285 28ft 13kts
24-Jun-20 15:24 32.732849 -117.202664 349 28ft 0kts
24-Jun-20 15:25 32.732849 -117.202664 349 28ft 0kts
24-Jun-20 15:26 32.732849 -117.202664 349 28ft 0kts
24-Jun-20 15:27 32.732849 -117.202664 349 28ft 0kts
24-Jun-20 15:28 32.732849 -117.202664 349 28ft 0kts
24-Jun-20 15:29 32.732849 -117.202664 349 28ft 0kts
24-Jun-20 15:30 32.732849 -117.202664 349 28ft 0kts
24-Jun-20 15:31 32.732849 -117.202664 349 28ft 0kts
24-Jun-20 15:32 32.732849 -117.202664 349 28ft 0kts
24-Jun-20 15:33 32.732849 -117.202664 349 28ft 0kts
24-Jun-20 15:34 32.732849 -117.202664 349 28ft 0kts
24-Jun-20 15:35 32.732849 -117.202664 349 28ft 0kts

Navigation Log

Ident Type
Flight plan parsing failed, navigation log unavailable